Aérodrome :
LOGIN :

S'inscrire | Disclaimer

   EN    FR    IT 

 










Légende :    VFR   VFR Marginal   IFR   IFR Intensif   IFR Très Intensif
Visi : 
Plafond : 
>= 8 km
>= 3000ft
5 à 8 km
1000 à 3000 ft
1500m à 5 km
500 à 1000 ft
800 à 1500m
200 à 500 ft
< 800m
< 200 ft
Symboles :   Orages  Brouillard  Fortes neiges  Fortes précipitations  Vent > 20 kt
SIGMETs :   Divers  Orages  Givrage  Turbulence  Onde Orograph.  Cendres Volcan.






- Altitude de l'aérodrome : 1339 ft


ETHN - Niederstetten

DERNIER METAR :
  • 031020Z 29005KT 9999 FEW060CB BKN190 24/06 Q1006 BLU BLU

METARs EXPIRÉS :
  • 030920Z 24005KT 9999 FEW055 BKN190 24/08 Q1007 BLU BLU
  • 030820Z 25003KT 9999 FEW050 BKN180 22/07 Q1007 BLU BLU

TAF TAF ETHN
Valide du 03 à 11h jusqu'au 03 à 20h UTC


031000Z 0311/0320 20005KT 9999 NSW FEW060 SCT200
PROB30 0313/0320 VRB15G25KT 4000 TSRA SCT012 BKN020CB



MET'MAP, la Météo Aéronautique d'un coup d'oeil ! - Copyright ORBIFLY Décembre 2007 - Disclaimer

ORBIFLY MET'MAP TEAM :

Programmation & Développement : Alexandra Zaïnal
Sur une idée originale de : Baudouin d'Aumeries
Assistance à la programmation : Marc-Olivier Méhu
Soutien technique & logistique : Manuel Goepfert

Contact : metmap@orbifly.com




SOURCES & CREDITS :

   NOAA